createdAt,value
2023-12-23T00:01:46.482Z,53.00
2023-12-23T00:04:14.690Z,53.10
2023-12-23T00:06:43.121Z,53.00
2023-12-23T00:09:17.070Z,52.80
2023-12-23T00:11:45.778Z,52.80
2023-12-23T00:14:15.386Z,52.80
2023-12-23T00:16:44.906Z,52.60
2023-12-23T00:19:13.548Z,52.20
2023-12-23T00:21:41.812Z,52.50
2023-12-23T00:24:10.343Z,52.30
2023-12-23T00:26:38.370Z,52.40
2023-12-23T00:29:06.936Z,52.60
2023-12-23T00:31:35.569Z,52.70
2023-12-23T00:34:06.294Z,52.80
2023-12-23T00:36:35.005Z,52.70
2023-12-23T00:39:05.325Z,53.00
2023-12-23T00:41:33.478Z,52.60
2023-12-23T00:44:02.291Z,52.90
2023-12-23T00:46:30.638Z,52.90
2023-12-23T00:48:58.794Z,52.80
2023-12-23T00:51:28.627Z,52.60
2023-12-23T00:53:56.655Z,52.10
2023-12-23T00:56:25.005Z,52.40
2023-12-23T00:58:53.269Z,51.90
2023-12-23T01:01:21.675Z,51.80
2023-12-23T01:03:49.761Z,51.50
2023-12-23T01:06:18.267Z,51.50
2023-12-23T01:08:50.110Z,51.30
2023-12-23T01:11:18.282Z,51.00
2023-12-23T01:13:46.384Z,51.00
2023-12-23T01:16:14.789Z,51.10
2023-12-23T01:18:43.504Z,51.00
2023-12-23T01:21:11.563Z,51.00
2023-12-23T01:23:40.116Z,51.00
2023-12-23T01:26:10.303Z,50.80
2023-12-23T01:28:38.122Z,51.00
2023-12-23T01:31:07.720Z,51.00
2023-12-23T01:33:35.803Z,51.00
2023-12-23T01:36:06.835Z,51.20
2023-12-23T01:38:35.364Z,51.20
2023-12-23T01:41:03.646Z,51.30
2023-12-23T01:43:34.496Z,51.50
2023-12-23T01:46:02.970Z,51.40
2023-12-23T01:48:32.362Z,51.40
2023-12-23T01:51:01.351Z,51.80
2023-12-23T01:53:30.397Z,52.20
2023-12-23T01:55:58.674Z,51.90
2023-12-23T01:58:26.878Z,51.90
2023-12-23T02:01:00.190Z,52.30
2023-12-23T02:03:30.135Z,51.80
2023-12-23T02:05:59.337Z,52.60
2023-12-23T02:08:28.199Z,52.70
2023-12-23T02:11:01.916Z,52.60
2023-12-23T02:13:31.790Z,52.60
2023-12-23T02:16:05.450Z,52.80
2023-12-23T02:18:36.131Z,52.70
2023-12-23T02:21:09.889Z,53.30
2023-12-23T02:23:53.900Z,53.40
2023-12-23T02:27:19.794Z,53.30
2023-12-23T02:29:59.042Z,53.50
2023-12-23T02:32:27.744Z,54.10
2023-12-23T02:34:56.387Z,53.80
2023-12-23T02:37:25.955Z,55.10
2023-12-23T02:43:02.888Z,55.30
2023-12-23T02:45:32.122Z,55.20
2023-12-23T02:48:02.193Z,54.80
2023-12-23T02:50:30.952Z,54.70
2023-12-23T02:53:01.278Z,54.40
2023-12-23T02:55:36.425Z,54.60
2023-12-23T02:58:07.428Z,54.50
2023-12-23T03:00:48.573Z,54.30
2023-12-23T03:03:19.790Z,54.40
2023-12-23T03:05:50.517Z,54.20
2023-12-23T03:08:20.143Z,54.00
2023-12-23T03:10:50.106Z,54.00
2023-12-23T03:13:24.079Z,54.00
2023-12-23T03:15:55.702Z,54.00
2023-12-23T03:18:25.711Z,53.60
2023-12-23T03:20:56.084Z,54.00
2023-12-23T03:23:25.879Z,54.00
2023-12-23T03:25:53.956Z,53.90
2023-12-23T03:28:23.158Z,54.10
2023-12-23T03:30:51.321Z,54.40
2023-12-23T03:33:20.989Z,54.30
2023-12-23T03:35:49.237Z,54.40
2023-12-23T03:38:17.565Z,54.30
2023-12-23T03:40:47.249Z,54.30
2023-12-23T03:43:15.686Z,54.40
2023-12-23T03:45:43.854Z,54.60
2023-12-23T03:48:11.812Z,54.70
2023-12-23T03:50:39.942Z,54.70
2023-12-23T03:53:08.110Z,54.90
2023-12-23T03:55:40.428Z,54.90
2023-12-23T03:58:10.119Z,54.90
2023-12-23T04:00:38.476Z,55.20
2023-12-23T04:03:06.538Z,55.20
2023-12-23T04:05:34.684Z,55.30
2023-12-23T04:08:02.539Z,55.30
2023-12-23T04:10:30.358Z,55.50
2023-12-23T04:12:58.678Z,55.50
2023-12-23T04:15:27.901Z,55.50
2023-12-23T04:17:55.883Z,55.70
2023-12-23T04:20:23.820Z,55.80
2023-12-23T04:22:51.874Z,55.80
2023-12-23T04:25:22.728Z,55.90
2023-12-23T04:27:53.661Z,55.90
2023-12-23T04:30:22.360Z,56.10
2023-12-23T04:32:52.408Z,56.10
2023-12-23T04:35:21.892Z,56.30
2023-12-23T04:37:50.374Z,56.30
2023-12-23T04:40:18.467Z,56.30
2023-12-23T04:42:46.544Z,56.30
2023-12-23T04:45:15.249Z,56.40
2023-12-23T04:47:43.417Z,56.50
2023-12-23T04:50:14.715Z,56.60
2023-12-23T04:52:42.776Z,56.40
2023-12-23T04:55:12.588Z,56.50
2023-12-23T04:57:42.178Z,56.50
2023-12-23T05:00:13.354Z,56.60
2023-12-23T05:02:42.266Z,56.80
2023-12-23T05:05:12.952Z,56.70
2023-12-23T05:07:41.812Z,56.80
2023-12-23T05:10:11.902Z,56.80
2023-12-23T05:12:40.962Z,56.90
2023-12-23T05:15:10.463Z,56.90
2023-12-23T05:17:38.983Z,57.00
2023-12-23T05:20:11.096Z,57.00
2023-12-23T05:22:41.051Z,57.00
2023-12-23T05:25:10.174Z,57.20
2023-12-23T05:27:40.203Z,57.20
2023-12-23T05:30:10.040Z,57.40
2023-12-23T05:32:39.603Z,57.30
2023-12-23T05:35:08.494Z,57.10
2023-12-23T05:37:36.589Z,57.40
2023-12-23T05:40:07.303Z,57.40
2023-12-23T05:42:35.352Z,57.40
2023-12-23T05:45:04.403Z,57.50
2023-12-23T05:47:34.353Z,57.40
2023-12-23T05:50:02.681Z,57.60
2023-12-23T05:52:31.593Z,57.60
2023-12-23T05:55:00.041Z,57.60
2023-12-23T05:57:30.890Z,57.60
2023-12-23T05:59:59.171Z,57.70
2023-12-23T06:02:28.053Z,57.80
2023-12-23T06:04:56.514Z,57.70
2023-12-23T06:07:24.661Z,57.60
2023-12-23T06:09:52.633Z,58.00
2023-12-23T06:12:21.547Z,58.00
2023-12-23T06:14:51.726Z,58.00
2023-12-23T06:17:20.260Z,58.00
2023-12-23T06:19:48.671Z,58.00
2023-12-23T06:22:17.473Z,58.00
2023-12-23T06:24:45.765Z,58.00
2023-12-23T06:27:14.161Z,58.10
2023-12-23T06:29:42.124Z,58.10
2023-12-23T06:32:11.623Z,58.30
2023-12-23T06:34:39.619Z,58.10
2023-12-23T06:37:08.075Z,58.30
2023-12-23T06:39:35.997Z,58.40
2023-12-23T06:42:04.514Z,58.40
2023-12-23T06:44:32.679Z,58.30
2023-12-23T06:47:00.693Z,58.50
2023-12-23T06:49:30.415Z,58.50
2023-12-23T06:51:58.618Z,58.30
2023-12-23T06:54:27.071Z,58.70
2023-12-23T06:56:55.740Z,58.50
2023-12-23T06:59:25.239Z,58.60
2023-12-23T07:01:53.679Z,58.90
2023-12-23T07:04:22.336Z,58.80
2023-12-23T07:06:52.426Z,58.50
2023-12-23T07:09:20.450Z,58.70
2023-12-23T07:11:48.379Z,58.90
2023-12-23T07:14:16.398Z,58.70
2023-12-23T07:16:45.265Z,58.80
2023-12-23T07:19:15.236Z,58.80
2023-12-23T07:21:43.611Z,58.80
2023-12-23T07:24:12.998Z,58.80
2023-12-23T07:26:40.986Z,59.00
2023-12-23T07:29:09.317Z,59.00
2023-12-23T07:31:37.756Z,59.00
2023-12-23T07:34:06.762Z,58.90
2023-12-23T07:36:34.923Z,59.30
2023-12-23T07:39:03.118Z,59.20
2023-12-23T07:41:35.152Z,59.30
2023-12-23T07:44:03.363Z,59.10
2023-12-23T07:46:31.560Z,59.00
2023-12-23T07:48:59.337Z,59.10
2023-12-23T07:51:27.110Z,59.30
2023-12-23T07:53:54.949Z,59.30
2023-12-23T07:56:24.029Z,59.30
2023-12-23T07:58:53.142Z,59.20
2023-12-23T08:01:21.687Z,59.20
2023-12-23T08:03:49.930Z,59.20
2023-12-23T08:06:18.143Z,59.40
2023-12-23T08:08:46.483Z,59.70
2023-12-23T08:11:14.213Z,59.40
2023-12-23T08:13:42.857Z,59.40
2023-12-23T08:16:11.975Z,59.60
2023-12-23T08:18:41.589Z,59.50
2023-12-23T08:21:09.389Z,59.40
2023-12-23T08:23:37.578Z,59.40
2023-12-23T08:26:05.976Z,59.60
2023-12-23T08:28:33.731Z,59.50
2023-12-23T08:31:03.320Z,59.50
2023-12-23T08:33:32.808Z,59.50
2023-12-23T08:36:01.140Z,59.50
2023-12-23T08:38:29.358Z,59.40
2023-12-23T08:40:57.587Z,59.70
2023-12-23T08:43:25.528Z,59.50
2023-12-23T08:45:53.449Z,59.60
2023-12-23T08:48:21.633Z,59.70
2023-12-23T08:50:51.244Z,59.80
2023-12-23T08:53:20.563Z,59.70
2023-12-23T08:55:48.351Z,59.70
2023-12-23T08:58:16.159Z,59.60
2023-12-23T09:00:43.881Z,59.80
2023-12-23T09:03:11.746Z,60.00
2023-12-23T09:05:39.618Z,59.80
2023-12-23T09:08:09.008Z,59.70
2023-12-23T09:10:36.807Z,59.80
2023-12-23T09:13:04.891Z,59.70
2023-12-23T09:15:32.997Z,59.90
2023-12-23T09:18:00.893Z,59.90
2023-12-23T09:20:30.648Z,59.90
2023-12-23T09:22:58.444Z,59.90
2023-12-23T09:25:27.567Z,59.90
2023-12-23T09:27:55.292Z,59.80
2023-12-23T09:30:23.129Z,60.00
2023-12-23T09:32:51.075Z,59.90
2023-12-23T09:35:20.017Z,59.90
2023-12-23T09:37:48.147Z,60.00
2023-12-23T09:40:17.180Z,60.00
2023-12-23T09:42:46.692Z,60.00
2023-12-23T09:45:15.326Z,59.90
2023-12-23T09:47:43.616Z,60.10
2023-12-23T09:50:11.639Z,60.30
2023-12-23T09:52:39.867Z,60.00
2023-12-23T09:55:09.160Z,60.30
2023-12-23T09:57:37.283Z,60.30
2023-12-23T10:00:07.909Z,60.20
2023-12-23T10:02:35.648Z,60.30
2023-12-23T10:05:04.141Z,60.20
2023-12-23T10:07:31.901Z,60.10
2023-12-23T10:09:59.799Z,60.20
2023-12-23T10:12:28.215Z,60.20
2023-12-23T10:14:55.926Z,60.40
2023-12-23T10:17:25.082Z,60.30
2023-12-23T10:19:56.920Z,60.00
2023-12-23T10:22:25.318Z,60.40
2023-12-23T10:24:53.019Z,60.40
2023-12-23T10:27:20.740Z,60.20
2023-12-23T10:29:50.372Z,60.30
2023-12-23T10:32:18.590Z,60.20
2023-12-23T10:34:47.735Z,60.40
2023-12-23T10:37:17.046Z,60.40
2023-12-23T10:39:47.377Z,60.40
2023-12-23T10:42:21.166Z,60.40
2023-12-23T10:44:49.385Z,60.40
2023-12-23T10:47:18.329Z,60.40
2023-12-23T10:49:49.760Z,60.60
2023-12-23T10:52:18.109Z,60.40
2023-12-23T10:54:46.080Z,60.40
2023-12-23T10:57:14.451Z,61.10
2023-12-23T10:59:42.188Z,60.50
2023-12-23T11:02:13.727Z,60.60
2023-12-23T11:04:42.220Z,60.60
2023-12-23T11:07:11.612Z,60.50
2023-12-23T11:09:39.352Z,60.60
2023-12-23T11:12:07.864Z,60.70
2023-12-23T11:14:36.018Z,60.70
2023-12-23T11:17:03.863Z,60.50
2023-12-23T11:19:32.353Z,60.30
2023-12-23T11:22:24.383Z,60.50
2023-12-23T11:24:52.382Z,60.90
2023-12-23T11:27:34.700Z,60.70
2023-12-23T11:30:04.218Z,60.80
2023-12-23T11:32:37.490Z,60.50
2023-12-23T11:35:06.671Z,60.40
2023-12-23T11:37:52.866Z,60.50
2023-12-23T11:40:20.810Z,60.80
2023-12-23T11:42:49.692Z,60.70
2023-12-23T11:45:18.107Z,60.70
2023-12-23T11:47:45.962Z,60.80
2023-12-23T11:50:13.960Z,60.80
2023-12-23T11:52:41.944Z,60.70
2023-12-23T11:55:11.816Z,60.90
2023-12-23T11:57:39.651Z,60.80
2023-12-23T12:00:08.728Z,60.70
2023-12-23T12:02:36.682Z,60.80
2023-12-23T12:05:04.806Z,60.90
2023-12-23T12:07:32.610Z,60.70
2023-12-23T12:10:00.423Z,60.70
2023-12-23T12:12:29.926Z,60.40
2023-12-23T12:14:58.422Z,60.40
2023-12-23T12:17:26.412Z,60.30
2023-12-23T12:19:54.264Z,60.50
2023-12-23T12:22:23.000Z,60.30
2023-12-23T12:24:50.806Z,60.20
2023-12-23T12:27:18.754Z,60.30
2023-12-23T12:29:47.839Z,60.30
2023-12-23T12:32:15.618Z,60.10
2023-12-23T12:34:45.965Z,60.10
2023-12-23T12:37:15.575Z,58.70
2023-12-23T12:39:43.292Z,62.80
2023-12-23T12:42:10.998Z,69.50
2023-12-23T12:44:41.667Z,70.80
2023-12-23T12:47:10.874Z,70.20
2023-12-23T12:49:55.608Z,72.10
2023-12-23T12:52:31.315Z,79.10
2023-12-23T12:54:59.924Z,76.70
2023-12-23T12:57:29.727Z,77.70
2023-12-23T12:59:57.539Z,79.80
2023-12-23T13:02:26.692Z,77.70
2023-12-23T13:04:54.781Z,81.70
2023-12-23T13:07:24.331Z,80.40
2023-12-23T13:09:52.055Z,85.50
2023-12-23T13:12:19.868Z,81.60
2023-12-23T13:14:47.960Z,77.00
2023-12-23T13:17:16.437Z,73.80
2023-12-23T13:19:45.961Z,71.30
2023-12-23T13:22:13.982Z,69.30
2023-12-23T13:24:42.062Z,67.70
2023-12-23T13:27:09.854Z,66.60
2023-12-23T13:29:38.067Z,65.50
2023-12-23T13:32:06.774Z,64.70
2023-12-23T13:34:34.557Z,64.30
2023-12-23T13:37:03.660Z,64.00
2023-12-23T13:39:31.824Z,63.30
2023-12-23T13:41:59.994Z,63.00
2023-12-23T13:44:28.246Z,62.80
2023-12-23T13:47:01.404Z,62.50
2023-12-23T13:49:29.578Z,62.40
2023-12-23T13:51:57.688Z,62.20
2023-12-23T13:54:26.976Z,61.90
2023-12-23T13:56:54.854Z,62.10
2023-12-23T13:59:23.031Z,61.90
2023-12-23T14:01:50.897Z,61.80
2023-12-23T14:04:18.679Z,61.60
2023-12-23T14:06:46.376Z,61.80
2023-12-23T14:09:14.118Z,61.40
2023-12-23T14:11:43.818Z,61.90
2023-12-23T14:14:12.148Z,61.50
2023-12-23T14:16:40.323Z,61.50
2023-12-23T14:19:08.945Z,61.60
2023-12-23T14:21:36.872Z,61.60
2023-12-23T14:24:05.251Z,61.50
2023-12-23T14:26:33.648Z,61.50
2023-12-23T14:29:05.072Z,61.60
2023-12-23T14:31:33.049Z,61.50
2023-12-23T14:34:00.815Z,61.50
2023-12-23T14:36:30.321Z,61.80
2023-12-23T14:38:59.045Z,61.60
2023-12-23T14:41:27.257Z,61.70
2023-12-23T14:43:56.076Z,61.70
2023-12-23T14:46:25.306Z,61.80
2023-12-23T14:48:53.499Z,61.70
2023-12-23T14:51:24.387Z,61.80
2023-12-23T14:53:52.178Z,61.90
2023-12-23T14:56:19.895Z,61.90
2023-12-23T14:58:49.290Z,62.10
2023-12-23T15:01:18.672Z,62.80
2023-12-23T15:03:49.031Z,62.60
2023-12-23T15:06:17.309Z,62.70
2023-12-23T15:08:45.051Z,62.50
2023-12-23T15:11:12.803Z,62.70
2023-12-23T15:13:42.986Z,62.60
2023-12-23T15:16:11.396Z,62.60
2023-12-23T15:18:39.635Z,62.70
2023-12-23T15:21:09.067Z,62.50
2023-12-23T15:23:36.873Z,62.50
2023-12-23T15:26:05.072Z,62.70
2023-12-23T15:28:33.331Z,62.50
2023-12-23T15:31:01.151Z,62.60
2023-12-23T15:33:29.049Z,62.80
2023-12-23T15:35:56.835Z,62.80
2023-12-23T15:38:25.917Z,62.70
2023-12-23T15:40:53.655Z,62.70
2023-12-23T15:43:21.380Z,62.70
2023-12-23T15:45:49.096Z,62.80
2023-12-23T15:48:16.973Z,62.90
2023-12-23T15:50:44.747Z,62.90
2023-12-23T15:53:12.731Z,62.80
2023-12-23T15:55:41.843Z,62.70
2023-12-23T15:58:09.962Z,62.90
2023-12-23T16:00:37.758Z,63.10
2023-12-23T16:03:06.250Z,63.10
2023-12-23T16:05:34.092Z,63.40
2023-12-23T16:08:04.734Z,63.70
2023-12-23T16:10:33.288Z,63.60
2023-12-23T16:13:03.225Z,63.10
2023-12-23T16:15:30.932Z,63.20
2023-12-23T16:17:59.115Z,63.00
2023-12-23T16:20:26.921Z,62.90
2023-12-23T16:22:55.229Z,63.10
2023-12-23T16:25:23.176Z,62.90
2023-12-23T16:27:51.860Z,62.70
2023-12-23T16:30:21.384Z,62.70
2023-12-23T16:32:49.901Z,62.70
2023-12-23T16:35:17.921Z,62.80
2023-12-23T16:37:45.665Z,62.80
2023-12-23T16:40:14.031Z,62.70
2023-12-23T16:42:41.915Z,62.70
2023-12-23T16:45:15.675Z,62.60
2023-12-23T16:47:45.106Z,62.60
2023-12-23T16:50:14.741Z,62.80
2023-12-23T16:52:42.877Z,62.50
2023-12-23T16:55:12.336Z,62.70
2023-12-23T16:57:40.205Z,62.60
2023-12-23T17:00:09.603Z,62.60
2023-12-23T17:02:37.668Z,62.50
2023-12-23T17:05:08.186Z,62.50
2023-12-23T17:07:36.350Z,62.40
2023-12-23T17:10:04.400Z,62.50
2023-12-23T17:12:32.136Z,62.80
2023-12-23T17:15:00.735Z,62.40
2023-12-23T17:17:28.761Z,62.40
2023-12-23T17:19:57.455Z,62.70
2023-12-23T17:22:27.246Z,62.70
2023-12-23T17:24:55.407Z,62.60
2023-12-23T17:27:23.281Z,62.70
2023-12-23T17:29:51.063Z,62.70
2023-12-23T17:32:18.961Z,62.70
2023-12-23T17:34:47.517Z,62.80
2023-12-23T17:37:15.555Z,62.60
2023-12-23T17:39:44.983Z,62.60
2023-12-23T17:42:12.806Z,62.70
2023-12-23T17:44:40.775Z,62.80
2023-12-23T17:47:08.753Z,62.90
2023-12-23T17:49:36.534Z,62.80
2023-12-23T17:52:04.617Z,62.90
2023-12-23T17:54:32.382Z,62.70
2023-12-23T17:57:01.534Z,62.90
2023-12-23T17:59:29.983Z,62.90
2023-12-23T18:01:58.002Z,62.90
2023-12-23T18:04:25.933Z,62.90
2023-12-23T18:06:53.993Z,63.00
2023-12-23T18:09:21.926Z,63.10
2023-12-23T18:11:49.975Z,63.00
2023-12-23T18:14:20.381Z,62.90
2023-12-23T18:16:48.452Z,63.00
2023-12-23T18:19:16.636Z,63.30
2023-12-23T18:21:44.840Z,63.20
2023-12-23T18:24:14.017Z,63.30
2023-12-23T18:26:42.932Z,63.30
2023-12-23T18:29:11.286Z,63.30
2023-12-23T18:31:41.012Z,63.30
2023-12-23T18:34:09.294Z,63.50
2023-12-23T18:36:37.378Z,63.30
2023-12-23T18:39:05.407Z,64.90
2023-12-23T18:41:33.755Z,65.00
2023-12-23T18:44:02.968Z,65.10
2023-12-23T18:46:32.336Z,65.10
2023-12-23T18:49:01.789Z,64.90
2023-12-23T18:51:30.966Z,65.10
2023-12-23T18:53:59.265Z,65.00
2023-12-23T18:56:27.038Z,65.30
2023-12-23T18:58:54.828Z,64.80
2023-12-23T19:01:22.646Z,65.00
2023-12-23T19:03:50.454Z,64.80
2023-12-23T19:06:19.814Z,64.60
2023-12-23T19:08:47.772Z,64.40
2023-12-23T19:11:16.475Z,64.40
2023-12-23T19:13:44.337Z,64.30
2023-12-23T19:16:12.294Z,64.30
2023-12-23T19:18:40.578Z,64.00
2023-12-23T19:21:08.337Z,64.20
2023-12-23T19:23:39.527Z,63.90
2023-12-23T19:26:07.413Z,63.90
2023-12-23T19:28:37.069Z,64.10
2023-12-23T19:31:05.215Z,64.20
2023-12-23T19:33:34.824Z,64.10
2023-12-23T19:36:04.243Z,64.10
2023-12-23T19:38:32.190Z,63.80
2023-12-23T19:41:01.459Z,63.90
2023-12-23T19:43:29.775Z,76.50
2023-12-23T19:45:57.962Z,80.80
2023-12-23T19:48:25.975Z,82.50
2023-12-23T19:50:53.934Z,82.30
2023-12-23T19:53:22.534Z,84.00
2023-12-23T19:55:50.650Z,81.40
2023-12-23T19:58:20.457Z,83.60
2023-12-23T20:00:50.053Z,82.30
2023-12-23T20:03:18.449Z,81.00
2023-12-23T20:06:00.429Z,80.60
2023-12-23T20:08:28.580Z,82.30
2023-12-23T20:10:57.060Z,81.70
2023-12-23T20:13:26.419Z,82.40
2023-12-23T20:15:54.967Z,81.60
2023-12-23T20:18:31.943Z,80.70
2023-12-23T20:21:13.565Z,77.90
2023-12-23T20:23:45.549Z,75.80
2023-12-23T20:26:56.550Z,75.10
2023-12-23T20:29:53.944Z,74.90
2023-12-23T20:32:50.581Z,74.10
2023-12-23T20:35:21.549Z,73.80
2023-12-23T20:37:54.926Z,73.40
2023-12-23T20:40:23.158Z,73.20
2023-12-23T20:42:51.361Z,73.10
2023-12-23T20:45:21.085Z,74.00
2023-12-23T20:47:49.432Z,78.70
2023-12-23T20:50:17.612Z,76.30
2023-12-23T20:52:45.502Z,75.70
2023-12-23T20:55:14.485Z,75.70
2023-12-23T20:57:42.264Z,75.70
2023-12-23T21:00:11.410Z,75.70
2023-12-23T21:02:41.490Z,75.70
2023-12-23T21:05:12.335Z,75.50
2023-12-23T21:07:42.616Z,75.50
2023-12-23T21:10:11.536Z,75.50
2023-12-23T21:12:39.837Z,75.60
2023-12-23T21:15:09.259Z,75.50
2023-12-23T21:17:37.808Z,75.30
2023-12-23T21:20:08.527Z,75.40
2023-12-23T21:22:37.418Z,75.30
2023-12-23T21:25:05.943Z,75.40
2023-12-23T21:27:34.344Z,75.30
2023-12-23T21:30:02.111Z,75.30
2023-12-23T21:32:30.280Z,75.30
2023-12-23T21:34:58.293Z,75.30
2023-12-23T21:37:27.773Z,75.50
2023-12-23T21:39:56.123Z,75.40
2023-12-23T21:42:24.120Z,75.40
2023-12-23T21:44:52.004Z,75.40
2023-12-23T21:47:20.200Z,75.20
2023-12-23T21:49:48.483Z,75.20
2023-12-23T21:52:16.718Z,75.20
2023-12-23T21:54:46.156Z,75.10
2023-12-23T21:57:15.528Z,74.90
2023-12-23T21:59:43.512Z,75.00
2023-12-23T22:02:11.581Z,75.00
2023-12-23T22:04:39.734Z,75.00
2023-12-23T22:07:07.654Z,74.80
2023-12-23T22:09:35.694Z,74.80
2023-12-23T22:12:05.626Z,74.60
2023-12-23T22:14:34.263Z,74.70
2023-12-23T22:17:04.297Z,74.60
2023-12-23T22:19:33.617Z,74.60
2023-12-23T22:22:01.503Z,74.50
2023-12-23T22:24:29.230Z,74.40
2023-12-23T22:26:56.985Z,74.40
2023-12-23T22:29:26.588Z,74.30
2023-12-23T22:31:54.581Z,74.30
2023-12-23T22:34:22.741Z,74.20
2023-12-23T22:36:57.292Z,74.30
2023-12-23T22:39:25.606Z,74.10
2023-12-23T22:41:55.105Z,74.20
2023-12-23T22:44:24.698Z,74.20
2023-12-23T22:46:54.711Z,74.10
2023-12-23T22:49:22.898Z,74.00
2023-12-23T22:51:51.131Z,74.00
2023-12-23T22:54:19.319Z,74.00
2023-12-23T22:56:47.299Z,74.00
2023-12-23T22:59:18.478Z,73.80
2023-12-23T23:01:46.612Z,73.80
2023-12-23T23:04:16.807Z,73.70
2023-12-23T23:06:44.962Z,73.80
2023-12-23T23:09:13.379Z,73.70
2023-12-23T23:11:41.447Z,73.60
2023-12-23T23:14:09.625Z,73.90
2023-12-23T23:16:37.983Z,73.60
2023-12-23T23:19:06.180Z,73.60
2023-12-23T23:21:36.196Z,73.50
2023-12-23T23:24:04.500Z,73.60
2023-12-23T23:26:32.645Z,73.50
2023-12-23T23:29:00.718Z,73.60
2023-12-23T23:31:28.665Z,73.60
2023-12-23T23:33:56.509Z,73.70
2023-12-23T23:36:24.307Z,73.40
2023-12-23T23:38:53.469Z,73.60
2023-12-23T23:41:21.928Z,73.50
2023-12-23T23:43:49.795Z,73.50
2023-12-23T23:46:17.682Z,73.50
2023-12-23T23:48:46.274Z,73.60
2023-12-23T23:51:18.995Z,73.40
2023-12-23T23:53:47.479Z,73.50
2023-12-23T23:56:20.563Z,73.50
2023-12-23T23:58:49.617Z,73.30
